Time;durP1;ratioP1;P1;durP2;ratioP2;P2;SDS_P1;SDS_P2;PMS_P1;PMS_P2;Temp;Humidity;BMP_temperature;BMP_pressure;BME280_temperature;BME280_humidity;BME280_pressure;Samples;Min_cycle;Max_cycle;Signal;HPM_P1;HPM_P2
2021/08/09 00:00:54;;;;;;;;;;;;;;;22.59;61.46;99927.75;2081805;28;19916;-45
2021/08/09 00:01:55;;;;;;;;;;;;;;;22.58;61.70;99937.00;2080115;28;19917;-45
2021/08/09 00:02:55;;;;;;;;;;;;;;;22.58;61.56;99937.00;2080809;28;20905;-45
2021/08/09 00:03:55;;;;;;;;;;;;;;;22.60;61.49;99934.09;2081923;28;20112;-46
2021/08/09 00:04:56;;;;;;;;;;;;;;;22.61;61.45;99935.78;2080282;28;19979;-45
2021/08/09 00:05:56;;;;;;;;;;;;;;;22.61;61.58;99938.53;2079101;28;19974;-45
2021/08/09 00:06:56;;;;;;;;;;;;;;;22.61;61.60;99935.78;2079702;28;19930;-44
2021/08/09 00:07:56;;;;;;;;;;;;;;;22.59;61.54;99926.91;2079375;28;20457;-44
2021/08/09 00:08:59;;;;;;;;;;;;;;;22.59;61.48;99933.25;2084929;28;19930;-45
2021/08/09 00:09:59;;;;;;;;;;;;;;;22.59;61.50;99936.00;2080969;28;19920;-45
2021/08/09 00:10:59;;;;;;;;;;;;;;;22.61;61.50;99931.19;2080745;28;20345;-45
2021/08/09 00:12:00;;;;;;;;;;;;;;;22.61;61.38;99936.69;2084467;28;19928;-44
2021/08/09 00:13:00;;;;;;;;;;;;;;;22.62;61.34;99932.03;2083983;28;20929;-45
2021/08/09 00:14:01;;;;;;;;;;;;;;;22.61;61.55;99931.19;2080513;28;19960;-46
2021/08/09 00:15:01;;;;;;;;;;;;;;;22.60;61.48;99926.72;2081232;28;19931;-48
2021/08/09 00:16:02;;;;;;;;;;;;;;;22.59;61.57;99937.88;2085472;28;19927;-45
2021/08/09 00:17:03;;;;;;;;;;;;;;;22.58;61.48;99931.50;2083162;28;19977;-46
2021/08/09 00:18:03;;;;;;;;;;;;;;;22.58;61.66;99930.66;2081040;28;19917;-46
2021/08/09 00:19:03;;;;;;;;;;;;;;;22.57;61.59;99929.81;2081580;28;19924;-45
2021/08/09 00:20:06;;;;;;;;;;;;;;;22.58;61.55;99931.50;2084292;28;19950;-45
2021/08/09 00:21:06;;;;;;;;;;;;;;;22.58;61.59;99930.66;2082250;28;20011;-45
2021/08/09 00:22:07;;;;;;;;;;;;;;;22.56;61.71;99930.84;2082423;28;21013;-45
2021/08/09 00:23:07;;;;;;;;;;;;;;;22.56;61.74;99925.34;2085263;28;19921;-45
2021/08/09 00:24:07;;;;;;;;;;;;;;;22.56;61.55;99916.25;2079219;28;20290;-45
2021/08/09 00:25:08;;;;;;;;;;;;;;;22.56;61.72;99927.22;2083528;28;19925;-46
2021/08/09 00:26:08;;;;;;;;;;;;;;;22.55;61.66;99920.03;2083515;28;19913;-46
2021/08/09 00:27:08;;;;;;;;;;;;;;;22.56;61.70;99928.09;2082658;28;19974;-45
2021/08/09 00:28:09;;;;;;;;;;;;;;;22.57;61.65;99921.56;2085889;28;20021;-44
2021/08/09 00:29:09;;;;;;;;;;;;;;;22.58;61.62;99920.53;2083706;28;20239;-45
2021/08/09 00:30:10;;;;;;;;;;;;;;;22.59;61.44;99922.25;2082589;28;19920;-45
2021/08/09 00:31:10;;;;;;;;;;;;;;;22.58;61.50;99926.03;2083393;28;19928;-45
2021/08/09 00:32:11;;;;;;;;;;;;;;;22.60;61.60;99923.97;2081702;28;20373;-45
2021/08/09 00:33:11;;;;;;;;;;;;;;;22.61;61.52;99924.81;2084394;28;19928;-45
2021/08/09 00:34:11;;;;;;;;;;;;;;;22.60;61.35;99923.97;2083212;28;19986;-44
2021/08/09 00:35:12;;;;;;;;;;;;;;;22.58;61.55;99920.53;2083215;28;19931;-45
2021/08/09 00:36:12;;;;;;;;;;;;;;;22.59;61.47;99916.75;2084481;28;20422;-46
2021/08/09 00:37:13;;;;;;;;;;;;;;;22.59;61.24;99922.25;2081642;28;19930;-45
2021/08/09 00:38:13;;;;;;;;;;;;;;;22.62;61.46;99916.41;2083558;28;19927;-45
2021/08/09 00:39:13;;;;;;;;;;;;;;;22.61;61.37;99917.44;2084475;28;20282;-45
2021/08/09 00:40:14;;;;;;;;;;;;;;;22.59;61.33;99913.16;2079251;28;20018;-44
2021/08/09 00:41:14;;;;;;;;;;;;;;;22.60;61.46;99923.97;2086824;28;20317;-44
2021/08/09 00:42:15;;;;;;;;;;;;;;;22.59;61.49;99916.75;2089178;28;19931;-45
2021/08/09 00:43:15;;;;;;;;;;;;;;;22.59;61.45;99922.25;2084965;28;19947;-44
2021/08/09 00:44:16;;;;;;;;;;;;;;;22.60;61.54;99917.63;2082303;28;20429;-45
2021/08/09 00:45:17;;;;;;;;;;;;;;;22.59;61.48;99911.28;2084107;28;20015;-45
2021/08/09 00:46:18;;;;;;;;;;;;;;;22.60;61.47;99920.34;2084379;28;19943;-46
2021/08/09 00:47:18;;;;;;;;;;;;;;;22.60;61.44;99923.09;2080888;28;19909;-45
2021/08/09 00:48:19;;;;;;;;;;;;;;;22.60;61.45;99918.47;2083614;28;19946;-44
2021/08/09 00:49:19;;;;;;;;;;;;;;;22.60;61.44;99917.63;2083568;28;19912;-45
2021/08/09 00:50:19;;;;;;;;;;;;;;;22.60;61.48;99917.63;2082966;28;19944;-44
2021/08/09 00:51:20;;;;;;;;;;;;;;;22.58;61.33;99915.03;2077978;28;19964;-44
2021/08/09 00:52:22;;;;;;;;;;;;;;;22.57;61.51;99913.34;2083435;28;19921;-45
2021/08/09 00:53:23;;;;;;;;;;;;;;;22.58;61.31;99908.69;2083528;28;19935;-45
2021/08/09 00:54:24;;;;;;;;;;;;;;;22.57;61.31;99907.84;2088470;28;20081;-46
2021/08/09 00:55:24;;;;;;;;;;;;;;;22.58;61.49;99909.53;2080340;28;20259;-45
2021/08/09 00:56:25;;;;;;;;;;;;;;;22.60;61.43;99907.47;2081250;28;19931;-45
2021/08/09 00:57:26;;;;;;;;;;;;;;;22.60;61.40;99915.72;2080485;28;19985;-46
2021/08/09 00:58:26;;;;;;;;;;;;;;;22.60;61.39;99904.72;2088754;28;19926;-45
2021/08/09 00:59:29;;;;;;;;;;;;;;;22.58;61.29;99912.28;2081924;28;20038;-45
2021/08/09 01:00:30;;;;;;;;;;;;;;;22.61;61.28;99914.69;2084655;28;20622;-45
2021/08/09 01:01:30;;;;;;;;;;;;;;;22.59;61.38;99915.91;2084210;28;20331;-46
2021/08/09 01:02:30;;;;;;;;;;;;;;;22.59;61.18;99916.75;2084119;28;19935;-45
2021/08/09 01:03:31;;;;;;;;;;;;;;;22.59;61.39;99916.75;2082413;28;19920;-48
2021/08/09 01:04:31;;;;;;;;;;;;;;;22.58;61.45;99917.78;2080140;28;20082;-45
2021/08/09 01:05:32;;;;;;;;;;;;;;;22.59;61.38;99919.50;2082868;28;20039;-45
2021/08/09 01:06:32;;;;;;;;;;;;;;;22.60;61.39;99918.47;2078952;28;19920;-46
2021/08/09 01:07:40;;;;;;;;;;;;;;;22.60;61.41;99917.63;2081828;28;19925;-45
2021/08/09 01:08:46;;;;;;;;;;;;;;;22.58;61.26;99917.78;2082629;28;20031;-44
2021/08/09 01:09:49;;;;;;;;;;;;;;;22.57;61.35;99913.34;2083491;28;19928;-47
2021/08/09 01:11:02;;;;;;;;;;;;;;;22.57;61.48;99913.34;2084001;28;20444;-45
2021/08/09 01:12:03;;;;;;;;;;;;;;;22.57;61.43;99912.47;2083052;28;19975;-45
2021/08/09 01:13:36;;;;;;;;;;;;;;;22.57;61.30;99916.06;2082080;28;19928;-45
2021/08/09 01:14:56;;;;;;;;;;;;;;;22.57;61.39;99907.84;2067452;28;20371;-45
2021/08/09 01:16:01;;;;;;;;;;;;;;;22.59;61.16;99911.28;2083822;28;19928;-47
2021/08/09 01:17:03;;;;;;;;;;;;;;;22.56;61.27;99910.75;2083748;28;20701;-44
2021/08/09 01:18:04;;;;;;;;;;;;;;;22.54;61.46;99908.19;2083088;28;19920;-46
2021/08/09 01:19:15;;;;;;;;;;;;;;;22.55;61.40;99909.06;2083209;28;20424;-45
2021/08/09 01:20:34;;;;;;;;;;;;;;;22.55;61.30;99907.16;2084587;28;19924;-44
2021/08/09 01:21:36;;;;;;;;;;;;;;;22.54;61.50;99908.19;2078178;28;19916;-45
2021/08/09 01:22:39;;;;;;;;;;;;;;;22.53;61.54;99902.88;2081079;28;19920;-45
2021/08/09 01:23:51;;;;;;;;;;;;;;;22.55;61.34;99904.41;2084632;28;19912;-46
2021/08/09 01:25:06;;;;;;;;;;;;;;;22.55;61.46;99909.91;2084030;28;19993;-44
2021/08/09 01:26:24;;;;;;;;;;;;;;;22.53;61.28;99900.97;2084201;28;19920;-45
2021/08/09 01:27:25;;;;;;;;;;;;;;;22.52;61.60;99899.28;2080342;28;19928;-45
2021/08/09 01:28:29;;;;;;;;;;;;;;;22.53;61.47;99900.97;2079608;28;20287;-45
2021/08/09 01:29:36;;;;;;;;;;;;;;;22.53;61.48;99897.38;2084341;28;19920;-45
2021/08/09 01:30:38;;;;;;;;;;;;;;;22.54;61.28;99897.22;2078909;28;20330;-45
2021/08/09 01:31:46;;;;;;;;;;;;;;;22.55;61.27;99901.66;2082872;28;20205;-45
2021/08/09 01:32:47;;;;;;;;;;;;;;;22.54;61.35;99902.72;2083496;28;19927;-45
2021/08/09 01:33:48;;;;;;;;;;;;;;;22.54;61.29;99905.47;2078937;28;19942;-45
2021/08/09 01:34:49;;;;;;;;;;;;;;;22.56;61.43;99906.09;2084424;28;19958;-44
2021/08/09 01:35:54;;;;;;;;;;;;;;;22.56;61.34;99905.25;2083771;28;19915;-45
2021/08/09 01:36:55;;;;;;;;;;;;;;;22.56;61.43;99903.34;2086307;28;19924;-45
2021/08/09 01:37:58;;;;;;;;;;;;;;;22.57;61.14;99902.34;2082284;28;20389;-45
2021/08/09 01:39:00;;;;;;;;;;;;;;;22.57;61.40;99902.34;2082761;28;19912;-44
2021/08/09 01:40:01;;;;;;;;;;;;;;;22.59;61.29;99905.78;2079942;28;20298;-44
2021/08/09 01:41:01;;;;;;;;;;;;;;;22.56;61.30;99900.63;2082179;28;19917;-46
2021/08/09 01:42:02;;;;;;;;;;;;;;;22.56;61.47;99902.50;2085057;28;20019;-49
2021/08/09 01:43:03;;;;;;;;;;;;;;;22.58;61.27;99903.19;2083193;28;19920;-44
2021/08/09 01:44:04;;;;;;;;;;;;;;;22.57;61.16;99907.84;2084033;28;19920;-44
2021/08/09 01:45:05;;;;;;;;;;;;;;;22.57;61.32;99907.84;2082144;28;19935;-44
2021/08/09 01:46:06;;;;;;;;;;;;;;;22.57;61.22;99899.59;2082676;28;19921;-44
2021/08/09 01:47:07;;;;;;;;;;;;;;;22.57;61.14;99907.84;2081670;28;19925;-44
2021/08/09 01:48:09;;;;;;;;;;;;;;;22.58;61.16;99900.44;2082201;28;19920;-45
2021/08/09 01:49:09;;;;;;;;;;;;;;;22.56;61.36;99906.09;2082718;28;19920;-44
2021/08/09 01:50:11;;;;;;;;;;;;;;;22.55;61.44;99909.91;2081188;28;20930;-44
2021/08/09 01:51:12;;;;;;;;;;;;;;;22.56;61.40;99900.63;2081719;28;19920;-45
2021/08/09 01:52:12;;;;;;;;;;;;;;;22.57;61.18;99905.09;2080420;28;19978;-44
2021/08/09 01:53:14;;;;;;;;;;;;;;;22.59;61.22;99900.28;2084126;28;19921;-45
2021/08/09 01:54:14;;;;;;;;;;;;;;;22.57;61.11;99907.84;2081217;28;19920;-45
2021/08/09 01:55:15;;;;;;;;;;;;;;;22.58;61.17;99903.19;2081985;28;19924;-46
2021/08/09 01:56:16;;;;;;;;;;;;;;;22.57;61.22;99907.84;2080424;28;20314;-44
2021/08/09 01:57:16;;;;;;;;;;;;;;;22.58;61.26;99903.19;2078888;28;19920;-44
2021/08/09 01:58:16;;;;;;;;;;;;;;;22.57;61.08;99902.34;2084621;28;20439;-44
2021/08/09 01:59:19;;;;;;;;;;;;;;;22.57;61.18;99907.84;2080860;28;19920;-44
2021/08/09 02:00:20;;;;;;;;;;;;;;;22.57;61.24;99905.09;2077504;28;20768;-44
2021/08/09 02:01:20;;;;;;;;;;;;;;;22.55;61.05;99896.16;2086316;28;19923;-44
2021/08/09 02:02:28;;;;;;;;;;;;;;;22.56;61.09;99899.75;2079609;28;19925;-47
2021/08/09 02:03:28;;;;;;;;;;;;;;;22.57;61.28;99902.34;2081931;28;19912;-44
2021/08/09 02:04:28;;;;;;;;;;;;;;;22.56;61.20;99900.63;2081293;28;19926;-44
2021/08/09 02:05:28;;;;;;;;;;;;;;;22.55;61.30;99903.56;2082749;28;20815;-45
2021/08/09 02:06:29;;;;;;;;;;;;;;;22.54;61.38;99908.19;2084803;28;19920;-47
2021/08/09 02:07:29;;;;;;;;;;;;;;;22.54;61.36;99904.56;2082031;28;19927;-44
2021/08/09 02:08:30;;;;;;;;;;;;;;;22.54;61.19;99919.19;2083315;28;19924;-43
2021/08/09 02:09:30;;;;;;;;;;;;;;;22.55;61.37;99920.03;2083632;28;20382;-44
2021/08/09 02:10:31;;;;;;;;;;;;;;;22.54;61.28;99913.69;2079874;28;19920;-45
2021/08/09 02:11:45;;;;;;;;;;;;;;;22.54;61.30;99910.06;2083190;28;19935;-44
2021/08/09 02:13:07;;;;;;;;;;;;;;;22.55;61.26;99909.06;2075331;28;20381;-46
2021/08/09 02:14:10;;;;;;;;;;;;;;;22.55;61.21;99918.16;2082191;28;19920;-45
2021/08/09 02:15:11;;;;;;;;;;;;;;;22.54;61.26;99913.69;2082139;28;19916;-44
2021/08/09 02:16:15;;;;;;;;;;;;;;;22.55;61.17;99914.53;2082272;28;19923;-43
2021/08/09 02:17:27;;;;;;;;;;;;;;;22.53;61.25;99914.72;2077254;28;20038;-45
2021/08/09 02:18:34;;;;;;;;;;;;;;;22.54;61.30;99913.69;2080157;28;19920;-44
2021/08/09 02:19:39;;;;;;;;;;;;;;;22.54;61.06;99910.94;2080461;28;19943;-45
2021/08/09 02:20:42;;;;;;;;;;;;;;;22.52;61.28;99909.41;2080372;28;19928;-43
2021/08/09 02:21:51;;;;;;;;;;;;;;;22.53;61.20;99911.97;2083895;28;19931;-44
2021/08/09 02:22:53;;;;;;;;;;;;;;;22.53;61.13;99914.72;2083188;28;19920;-44
2021/08/09 02:24:06;;;;;;;;;;;;;;;22.53;61.23;99911.97;2086348;28;20222;-44
2021/08/09 02:25:13;;;;;;;;;;;;;;;22.54;61.10;99910.94;2077064;28;19944;-45
2021/08/09 02:26:27;;;;;;;;;;;;;;;22.54;61.32;99912.81;2079359;28;20312;-46
2021/08/09 02:27:33;;;;;;;;;;;;;;;22.55;61.18;99907.16;2080527;28;20681;-45
2021/08/09 02:28:34;;;;;;;;;;;;;;;22.52;61.29;99899.28;2082853;28;19916;-45
2021/08/09 02:29:37;;;;;;;;;;;;;;;22.52;61.31;99896.53;2081381;28;20358;-45
2021/08/09 02:30:41;;;;;;;;;;;;;;;22.53;61.21;99906.47;2082670;28;19927;-45
2021/08/09 02:31:43;;;;;;;;;;;;;;;22.52;61.06;99896.53;2083654;28;19924;-45
2021/08/09 02:32:44;;;;;;;;;;;;;;;22.53;61.36;99900.97;2082824;28;19967;-44
2021/08/09 02:33:45;;;;;;;;;;;;;;;22.54;61.12;99890.84;2079330;28;19920;-44
2021/08/09 02:34:48;;;;;;;;;;;;;;;22.52;61.27;99898.44;2078245;28;19920;-45
2021/08/09 02:35:49;;;;;;;;;;;;;;;22.52;61.20;99902.03;2080946;28;19932;-44
2021/08/09 02:36:51;;;;;;;;;;;;;;;22.54;61.18;99896.34;2082599;28;19944;-43
2021/08/09 02:37:51;;;;;;;;;;;;;;;22.53;60.98;99897.38;2082837;28;20231;-45
2021/08/09 02:38:53;;;;;;;;;;;;;;;22.53;61.23;99895.47;2078542;28;19935;-44
2021/08/09 02:39:54;;;;;;;;;;;;;;;22.52;61.12;99898.44;2086707;28;19927;-45
2021/08/09 02:40:54;;;;;;;;;;;;;;;22.52;61.24;99893.78;2079404;28;20020;-43
2021/08/09 02:41:55;;;;;;;;;;;;;;;22.53;61.06;99900.97;2079005;28;20002;-44
2021/08/09 02:42:56;;;;;;;;;;;;;;;22.52;61.03;99893.78;2083954;28;20059;-44
2021/08/09 02:43:57;;;;;;;;;;;;;;;22.52;61.15;99899.28;2085224;28;19942;-43
2021/08/09 02:44:58;;;;;;;;;;;;;;;22.51;61.21;99897.53;2073446;28;19935;-46
2021/08/09 02:46:00;;;;;;;;;;;;;;;22.52;61.06;99899.28;2083718;28;20007;-44
2021/08/09 02:47:01;;;;;;;;;;;;;;;22.50;61.01;99895.84;2081625;28;19959;-43
2021/08/09 02:48:01;;;;;;;;;;;;;;;22.52;61.06;99901.19;2080262;28;19968;-47
2021/08/09 02:49:02;;;;;;;;;;;;;;;22.53;61.00;99903.72;2084976;28;19920;-44
2021/08/09 02:50:03;;;;;;;;;;;;;;;22.50;61.09;99900.50;2079225;28;19921;-46
2021/08/09 02:51:04;;;;;;;;;;;;;;;22.52;61.20;99896.53;2082028;28;20006;-44
2021/08/09 02:52:04;;;;;;;;;;;;;;;22.51;60.89;99897.53;2076658;28;19920;-43
2021/08/09 02:53:05;;;;;;;;;;;;;;;22.51;61.21;99897.53;2083690;28;20849;-46
2021/08/09 02:54:06;;;;;;;;;;;;;;;22.51;61.23;99903.03;2083939;28;19931;-46
2021/08/09 02:55:08;;;;;;;;;;;;;;;22.52;61.19;99903.91;2082955;28;19955;-45
2021/08/09 02:56:08;;;;;;;;;;;;;;;22.53;61.11;99892.72;2082442;28;19967;-48
2021/08/09 02:57:09;;;;;;;;;;;;;;;22.51;61.14;99896.69;2081637;28;19927;-46
2021/08/09 02:58:09;;;;;;;;;;;;;;;22.51;61.02;99896.69;2082540;28;19943;-44
2021/08/09 02:59:09;;;;;;;;;;;;;;;22.51;60.93;99896.69;2084198;28;19927;-44
2021/08/09 03:00:10;;;;;;;;;;;;;;;22.51;61.12;99897.53;2076937;28;19959;-44
2021/08/09 03:01:14;;;;;;;;;;;;;;;22.51;61.13;99897.53;2080671;28;20363;-46
2021/08/09 03:02:15;;;;;;;;;;;;;;;22.52;61.14;99901.19;2083483;28;19942;-44
2021/08/09 03:03:21;;;;;;;;;;;;;;;22.52;60.97;99904.78;2083917;28;20354;-44
2021/08/09 03:04:22;;;;;;;;;;;;;;;22.52;61.11;99902.03;2077690;28;20266;-44
2021/08/09 03:05:24;;;;;;;;;;;;;;;22.51;60.99;99900.28;2083368;28;20263;-45
2021/08/09 03:06:25;;;;;;;;;;;;;;;22.50;61.15;99903.22;2084248;28;19923;-45
2021/08/09 03:07:25;;;;;;;;;;;;;;;22.51;61.16;99903.03;2082453;28;20321;-45
2021/08/09 03:08:28;;;;;;;;;;;;;;;22.50;61.07;99890.34;2082532;28;19916;-45
2021/08/09 03:09:28;;;;;;;;;;;;;;;22.52;60.98;99904.78;2084010;28;19927;-45
2021/08/09 03:10:28;;;;;;;;;;;;;;;22.51;60.99;99900.28;2083461;28;19920;-45
2021/08/09 03:11:29;;;;;;;;;;;;;;;22.50;61.16;99895.00;2083551;28;19920;-44
2021/08/09 03:12:29;;;;;;;;;;;;;;;22.50;61.11;99889.50;2082297;28;19941;-44
2021/08/09 03:13:30;;;;;;;;;;;;;;;22.49;61.23;99891.41;2083716;28;20350;-46
2021/08/09 03:14:31;;;;;;;;;;;;;;;22.48;61.18;99886.91;2079662;28;19924;-47
2021/08/09 03:15:31;;;;;;;;;;;;;;;22.50;61.05;99886.75;2082382;28;19928;-45
2021/08/09 03:16:32;;;;;;;;;;;;;;;22.49;61.10;99888.66;2082857;28;19960;-45
2021/08/09 03:17:32;;;;;;;;;;;;;;;22.49;61.16;99885.91;2079055;28;20389;-46
2021/08/09 03:18:34;;;;;;;;;;;;;;;22.48;61.04;99881.44;2083522;28;19920;-44
2021/08/09 03:19:34;;;;;;;;;;;;;;;22.50;61.10;99882.09;2082042;28;19917;-46
2021/08/09 03:20:34;;;;;;;;;;;;;;;22.49;60.99;99885.91;2082787;28;19969;-45
2021/08/09 03:21:35;;;;;;;;;;;;;;;22.51;61.11;99878.31;2083539;28;20031;-45
2021/08/09 03:22:35;;;;;;;;;;;;;;;22.52;61.04;99880.03;2082991;28;20433;-45
2021/08/09 03:23:36;;;;;;;;;;;;;;;22.49;61.09;99877.66;2082424;28;19970;-45
2021/08/09 03:24:37;;;;;;;;;;;;;;;22.48;61.08;99875.94;2086236;28;19917;-45
2021/08/09 03:25:38;;;;;;;;;;;;;;;22.50;61.15;99873.03;2081584;28;19917;-44
2021/08/09 03:26:38;;;;;;;;;;;;;;;22.48;60.93;99875.94;2080414;28;19917;-44
2021/08/09 03:27:38;;;;;;;;;;;;;;;22.48;61.10;99875.94;2082720;28;19999;-44
2021/08/09 03:28:39;;;;;;;;;;;;;;;22.48;61.01;99871.28;2084341;28;19916;-46
2021/08/09 03:29:39;;;;;;;;;;;;;;;22.48;61.00;99870.44;2082091;28;20106;-46
2021/08/09 03:30:39;;;;;;;;;;;;;;;22.49;61.11;99866.69;2082525;28;19923;-46
2021/08/09 03:31:40;;;;;;;;;;;;;;;22.49;61.03;99877.66;2083825;28;19927;-44
2021/08/09 03:32:40;;;;;;;;;;;;;;;22.49;61.03;99872.16;2083789;28;20475;-46
2021/08/09 03:33:40;;;;;;;;;;;;;;;22.47;61.09;99864.09;2081942;28;19979;-45
2021/08/09 03:34:40;;;;;;;;;;;;;;;22.48;60.93;99867.69;2085716;28;19917;-44
2021/08/09 03:35:41;;;;;;;;;;;;;;;22.49;61.01;99872.16;2082515;28;20586;-44
2021/08/09 03:36:41;;;;;;;;;;;;;;;22.48;61.08;99873.19;2085980;28;20121;-44
2021/08/09 03:37:41;;;;;;;;;;;;;;;22.48;61.08;99876.78;2082966;28;19974;-46
2021/08/09 03:38:42;;;;;;;;;;;;;;;22.48;61.07;99870.44;2081721;28;19920;-44
2021/08/09 03:39:42;;;;;;;;;;;;;;;22.48;60.90;99871.28;2085398;28;20529;-44
2021/08/09 03:40:42;;;;;;;;;;;;;;;22.47;61.14;99868.75;2081214;28;19913;-44
2021/08/09 03:41:43;;;;;;;;;;;;;;;22.48;61.08;99875.94;2083365;28;19913;-45
2021/08/09 03:42:43;;;;;;;;;;;;;;;22.48;61.02;99864.94;2085060;28;19912;-47
2021/08/09 03:43:43;;;;;;;;;;;;;;;22.49;61.05;99866.69;2079813;28;20055;-44
2021/08/09 03:44:44;;;;;;;;;;;;;;;22.48;61.03;99867.69;2083985;28;20286;-45
2021/08/09 03:45:44;;;;;;;;;;;;;;;22.48;61.01;99871.28;2085124;28;19951;-44
2021/08/09 03:46:44;;;;;;;;;;;;;;;22.47;61.04;99866.00;2081832;28;19962;-45
2021/08/09 03:47:45;;;;;;;;;;;;;;;22.46;61.01;99872.50;2083624;28;19921;-43
2021/08/09 03:48:45;;;;;;;;;;;;;;;22.46;60.94;99869.75;2084190;28;20045;-46
2021/08/09 03:49:45;;;;;;;;;;;;;;;22.47;61.18;99871.50;2088722;28;19920;-45
2021/08/09 03:50:45;;;;;;;;;;;;;;;22.46;60.96;99861.50;2086107;28;19912;-44
2021/08/09 03:51:46;;;;;;;;;;;;;;;22.47;60.93;99864.09;2080926;28;19982;-44
2021/08/09 03:52:50;;;;;;;;;;;;;;;22.47;61.04;99868.75;2083438;28;19924;-45
2021/08/09 03:53:50;;;;;;;;;;;;;;;22.47;60.94;99857.75;2080991;28;20260;-44
2021/08/09 03:54:50;;;;;;;;;;;;;;;22.46;61.05;99856.91;2084253;28;19982;-44
2021/08/09 03:55:51;;;;;;;;;;;;;;;22.47;60.89;99857.75;2084272;28;19919;-44
2021/08/09 03:56:51;;;;;;;;;;;;;;;22.45;61.01;99855.19;2079244;28;19924;-45
2021/08/09 03:57:51;;;;;;;;;;;;;;;22.45;60.88;99865.31;2086206;28;20227;-45
2021/08/09 03:58:52;;;;;;;;;;;;;;;22.47;60.94;99863.25;2085257;28;19920;-44
2021/08/09 03:59:52;;;;;;;;;;;;;;;22.47;60.99;99863.25;2084101;28;19977;-44
2021/08/09 04:00:52;;;;;;;;;;;;;;;22.45;61.05;99859.81;2083337;28;20216;-45
2021/08/09 04:01:52;;;;;;;;;;;;;;;22.46;61.27;99856.03;2084793;28;19936;-44
2021/08/09 04:02:53;;;;;;;;;;;;;;;22.45;61.22;99854.31;2083712;28;20224;-44
2021/08/09 04:03:53;;;;;;;;;;;;;;;22.46;61.22;99861.50;2086859;28;19918;-44
2021/08/09 04:04:54;;;;;;;;;;;;;;;22.46;61.21;99858.78;2083045;28;19920;-45
2021/08/09 04:05:54;;;;;;;;;;;;;;;22.46;61.28;99856.91;2084135;28;20906;-44
2021/08/09 04:06:55;;;;;;;;;;;;;;;22.46;61.22;99858.78;2083650;28;19920;-44
2021/08/09 04:07:55;;;;;;;;;;;;;;;22.46;61.33;99856.03;2080480;28;19924;-44
2021/08/09 04:08:55;;;;;;;;;;;;;;;22.47;61.13;99860.50;2084666;28;19929;-45
2021/08/09 04:09:56;;;;;;;;;;;;;;;22.47;61.40;99860.50;2083883;28;19985;-45
2021/08/09 04:10:56;;;;;;;;;;;;;;;22.46;61.29;99856.91;2083609;28;20116;-45
2021/08/09 04:11:57;;;;;;;;;;;;;;;22.45;61.49;99859.81;2088526;28;20725;-43
2021/08/09 04:12:57;;;;;;;;;;;;;;;22.45;61.33;99854.31;2091965;28;20389;-44
2021/08/09 04:13:57;;;;;;;;;;;;;;;22.46;61.10;99856.03;2084534;28;19970;-44
2021/08/09 04:14:58;;;;;;;;;;;;;;;22.45;61.22;99854.31;2084379;28;19920;-44
2021/08/09 04:15:58;;;;;;;;;;;;;;;22.45;61.20;99851.56;2083923;28;19967;-44
2021/08/09 04:16:58;;;;;;;;;;;;;;;22.44;61.07;99852.59;2082801;28;19989;-46
2021/08/09 04:17:58;;;;;;;;;;;;;;;22.44;61.26;99850.72;2085557;28;20132;-44
2021/08/09 04:18:59;;;;;;;;;;;;;;;22.44;60.98;99852.59;2083129;28;19973;-45
2021/08/09 04:19:59;;;;;;;;;;;;;;;22.44;61.26;99847.97;2084752;28;19959;-44
2021/08/09 04:20:59;;;;;;;;;;;;;;;22.43;61.47;99850.91;2083335;28;19920;-44
2021/08/09 04:21:59;;;;;;;;;;;;;;;22.44;61.20;99855.34;2084147;28;19920;-44
2021/08/09 04:23:00;;;;;;;;;;;;;;;22.43;61.32;99854.50;2082806;28;19921;-47
2021/08/09 04:24:00;;;;;;;;;;;;;;;22.42;61.37;99851.94;2084535;28;20023;-44
2021/08/09 04:25:01;;;;;;;;;;;;;;;22.45;61.49;99851.56;2088307;28;19960;-44
2021/08/09 04:26:02;;;;;;;;;;;;;;;22.44;61.38;99847.09;2083643;28;20438;-45
2021/08/09 04:27:02;;;;;;;;;;;;;;;22.44;61.14;99858.97;2084471;28;19929;-45
2021/08/09 04:28:03;;;;;;;;;;;;;;;22.43;61.29;99849.00;2084723;28;20029;-44
2021/08/09 04:29:03;;;;;;;;;;;;;;;22.44;61.48;99847.09;2083899;28;19921;-45
2021/08/09 04:30:04;;;;;;;;;;;;;;;22.43;61.32;99850.91;2085322;28;19924;-44
2021/08/09 04:31:04;;;;;;;;;;;;;;;22.42;61.36;99855.53;2082360;28;19942;-45
2021/08/09 04:32:14;;;;;;;;;;;;;;;22.43;61.47;99853.63;2084541;28;19920;-46
2021/08/09 04:33:14;;;;;;;;;;;;;;;22.44;61.50;99855.34;2082261;28;19935;-44
2021/08/09 04:34:15;;;;;;;;;;;;;;;22.44;61.28;99855.34;2083943;28;20349;-44
2021/08/09 04:35:16;;;;;;;;;;;;;;;22.43;61.17;99845.41;2086323;28;19923;-45
2021/08/09 04:36:16;;;;;;;;;;;;;;;22.43;61.29;99850.91;2084874;28;19927;-44
2021/08/09 04:37:19;;;;;;;;;;;;;;;22.42;61.22;99849.19;2083231;28;19932;-45
2021/08/09 04:38:19;;;;;;;;;;;;;;;22.43;61.15;99840.75;2084280;28;19959;-44
2021/08/09 04:39:19;;;;;;;;;;;;;;;22.43;61.45;99853.63;2080647;28;20363;-45
2021/08/09 04:40:20;;;;;;;;;;;;;;;22.43;61.52;99850.91;2078930;28;19920;-45
2021/08/09 04:41:20;;;;;;;;;;;;;;;22.43;61.33;99850.91;2086168;28;19924;-45
2021/08/09 04:42:20;;;;;;;;;;;;;;;22.43;61.37;99846.25;2084022;28;19920;-44
2021/08/09 04:43:21;;;;;;;;;;;;;;;22.43;61.41;99850.91;2080908;28;19964;-46
2021/08/09 04:44:21;;;;;;;;;;;;;;;22.42;61.38;99858.28;2082010;28;19939;-47
2021/08/09 04:45:21;;;;;;;;;;;;;;;22.41;61.46;99848.31;2084440;28;19920;-45
2021/08/09 04:46:22;;;;;;;;;;;;;;;22.42;61.32;99849.19;2081428;28;19947;-46
2021/08/09 04:47:22;;;;;;;;;;;;;;;22.40;61.58;99852.09;2083667;28;19925;-45
2021/08/09 04:48:22;;;;;;;;;;;;;;;22.40;61.58;99848.50;2081583;28;20404;-45
2021/08/09 04:49:23;;;;;;;;;;;;;;;22.41;61.50;99847.47;2084062;28;20343;-44
2021/08/09 04:50:23;;;;;;;;;;;;;;;22.40;61.69;99846.63;2082882;28;19967;-44
2021/08/09 04:51:24;;;;;;;;;;;;;;;22.41;61.51;99847.47;2082267;28;19912;-45
2021/08/09 04:52:24;;;;;;;;;;;;;;;22.41;61.70;99855.69;2084225;28;20375;-44
2021/08/09 04:53:24;;;;;;;;;;;;;;;22.41;61.74;99852.97;2078724;28;20045;-47
2021/08/09 04:54:24;;;;;;;;;;;;;;;22.41;61.50;99852.97;2084241;28;19959;-45
2021/08/09 04:55:25;;;;;;;;;;;;;;;22.41;61.59;99861.19;2084647;28;19960;-45
2021/08/09 04:56:25;;;;;;;;;;;;;;;22.39;61.57;99852.28;2084678;28;19947;-46
2021/08/09 04:57:25;;;;;;;;;;;;;;;22.39;61.49;99855.91;2083178;28;19920;-45
2021/08/09 04:58:26;;;;;;;;;;;;;;;22.39;61.70;99860.50;2083227;28;19947;-44
2021/08/09 04:59:26;;;;;;;;;;;;;;;22.39;61.70;99855.03;2082838;28;19924;-46
2021/08/09 05:00:26;;;;;;;;;;;;;;;22.41;61.43;99853.81;2081272;28;19916;-45
2021/08/09 05:01:27;;;;;;;;;;;;;;;22.42;61.61;99860.19;2080128;28;19909;-44
2021/08/09 05:02:27;;;;;;;;;;;;;;;22.40;61.62;99859.50;2085690;28;19923;-44
2021/08/09 05:03:27;;;;;;;;;;;;;;;22.40;61.43;99867.72;2082251;28;19931;-44
2021/08/09 05:04:28;;;;;;;;;;;;;;;22.40;61.70;99862.25;2084168;28;20340;-45
2021/08/09 05:05:28;;;;;;;;;;;;;;;22.40;61.56;99859.50;2083852;28;19920;-45
2021/08/09 05:06:31;;;;;;;;;;;;;;;22.41;61.64;99863.94;2080755;28;20270;-45
2021/08/09 05:07:31;;;;;;;;;;;;;;;22.40;61.58;99865.00;2084754;28;19924;-43
2021/08/09 05:08:32;;;;;;;;;;;;;;;22.39;61.50;99866.00;2078336;28;20021;-45
2021/08/09 05:09:33;;;;;;;;;;;;;;;22.39;61.54;99866.00;2081412;28;19924;-45
2021/08/09 05:10:33;;;;;;;;;;;;;;;22.39;61.48;99868.75;2082949;28;19935;-45
2021/08/09 05:11:33;;;;;;;;;;;;;;;22.38;61.69;99864.31;2081788;28;20775;-46
2021/08/09 05:12:33;;;;;;;;;;;;;;;22.37;61.70;99865.34;2082976;28;20544;-45
2021/08/09 05:13:34;;;;;;;;;;;;;;;22.38;61.65;99864.31;2081722;28;20260;-44
2021/08/09 05:14:35;;;;;;;;;;;;;;;22.39;61.70;99872.38;2083646;28;19928;-44
2021/08/09 05:15:36;;;;;;;;;;;;;;;22.39;61.46;99866.88;2082090;28;19912;-45
2021/08/09 05:16:38;;;;;;;;;;;;;;;22.38;61.48;99862.41;2085332;28;20267;-44
2021/08/09 05:17:39;;;;;;;;;;;;;;;22.39;61.49;99868.75;2082015;28;20691;-44
2021/08/09 05:18:39;;;;;;;;;;;;;;;22.38;61.75;99870.66;2083448;28;19920;-47
2021/08/09 05:19:41;;;;;;;;;;;;;;;22.39;61.65;99866.00;2081732;28;19920;-45
2021/08/09 05:20:42;;;;;;;;;;;;;;;22.39;61.65;99872.38;2083113;28;19977;-44
2021/08/09 05:21:42;;;;;;;;;;;;;;;22.40;61.39;99865.00;2081994;28;19920;-45